Terminal Aerodrome Forecast
Issued by NWS Wilmington, OH

Home | Current Version | Previous Version | Text Only | Print | Product List | Glossary On
Versions: 1 2 3 4 5 6 7 8 9 10 11 12 13 14 15 16 17
000
FTUS41 KILN 272335
TAFDAY
TAF
KDAY 272335Z 2800/2824 25012KT P6SM SCT040
     FM280300 22005KT P6SM SCT250
     FM281200 14009KT P6SM BKN120=

USA.gov is the U.S. government's official web portal to all federal, state and local government web resources and services.